Time;durP1;ratioP1;P1;durP2;ratioP2;P2;SDS_P1;SDS_P2;PMS_P1;PMS_P2;Temp;Humidity;BMP_temperature;BMP_pressure;BME280_temperature;BME280_humidity;BME280_pressure;Samples;Min_cycle;Max_cycle;Signal;HPM_P1;HPM_P2
2022/03/05 00:01:26;;;;;;;;;1.50;1.50;;;;;8.01;72.59;100842.16;5036973;28;45199;-73
2022/03/05 00:03:51;;;;;;;;;7.00;6.50;;;;;8.12;72.48;100866.97;5036683;28;46214;-73
2022/03/05 00:06:17;;;;;;;;;3.00;3.00;;;;;8.19;73.33;100883.72;5036781;28;45539;-73
2022/03/05 00:08:42;;;;;;;;;2.25;2.25;;;;;8.17;73.45;100890.56;5036885;28;45248;-73
2022/03/05 00:11:08;;;;;;;;;8.00;5.00;;;;;8.20;71.40;100885.53;5037040;28;45429;-73
2022/03/05 00:13:35;;;;;;;;;11.25;9.50;;;;;8.04;72.78;100846.59;5036604;28;46630;-74
2022/03/05 00:16:02;;;;;;;;;4.00;3.00;;;;;8.14;72.59;100856.63;5037035;28;45342;-73
2022/03/05 00:18:27;;;;;;;;;2.75;2.00;;;;;8.24;72.37;100874.44;5036942;28;45367;-73
2022/03/05 00:20:53;;;;;;;;;1.25;1.00;;;;;8.16;72.45;100852.38;5036660;28;45518;-73
2022/03/05 00:23:19;;;;;;;;;1.50;1.00;;;;;8.13;72.32;100850.50;5036442;28;45553;-74
2022/03/05 00:25:45;;;;;;;;;2.75;2.00;;;;;8.10;71.61;100837.38;5036316;28;45469;-74
2022/03/05 00:28:11;;;;;;;;;2.00;1.25;;;;;8.05;70.76;100832.78;5036452;28;45510;-73
2022/03/05 00:30:36;;;;;;;;;4.25;2.75;;;;;8.16;71.54;100857.59;5036537;28;45398;-73
2022/03/05 00:33:02;;;;;;;;;3.25;1.00;;;;;8.05;71.71;100840.59;5036767;28;46106;-73
2022/03/05 00:35:28;;;;;;;;;1.00;1.00;;;;;8.14;72.31;100862.72;5036479;28;45355;-73
2022/03/05 00:37:53;;;;;;;;;1.50;0.25;;;;;7.60;72.47;100757.97;5036766;28;45343;-73
2022/03/05 00:40:19;;;;;;;;;1.00;1.00;;;;;8.09;72.15;100837.31;5036680;28;45279;-73
2022/03/05 00:42:44;;;;;;;;;3.50;3.00;;;;;8.04;72.53;100831.91;5036331;28;46209;-73
2022/03/05 00:45:10;;;;;;;;;0.00;0.00;;;;;8.09;72.89;100840.78;5036183;28;45181;-73
2022/03/05 00:47:37;;;;;;;;;1.00;1.00;;;;;8.11;72.18;100846.94;5036360;28;45442;-73
2022/03/05 00:50:07;;;;;;;;;5.25;3.00;;;;;8.13;72.57;100847.91;5035322;28;45572;-73
2022/03/05 00:52:34;;;;;;;;;1.00;1.00;;;;;8.13;71.52;100845.31;5036221;28;46741;-73
2022/03/05 00:54:59;;;;;;;;;7.00;5.25;;;;;8.10;72.29;100828.69;5036301;28;45208;-73
2022/03/05 00:57:25;;;;;;;;;3.00;2.00;;;;;8.09;72.16;100832.09;5036103;28;45367;-74
2022/03/05 00:59:50;;;;;;;;;2.00;1.50;;;;;8.08;72.81;100826.03;5038391;28;45473;-75
2022/03/05 01:02:16;;;;;;;;;2.25;1.75;;;;;7.95;72.59;100819.34;5037998;28;46326;-74
2022/03/05 01:04:42;;;;;;;;;1.25;1.00;;;;;7.93;72.88;100835.72;5039357;28;45507;-74
2022/03/05 01:07:07;;;;;;;;;1.50;1.00;;;;;7.91;73.33;100834.78;5039376;28;45460;-75
2022/03/05 01:09:33;;;;;;;;;0.25;0.00;;;;;7.82;73.94;100816.13;5040019;28;45399;-75
2022/03/05 01:11:59;;;;;;;;;0.00;0.00;;;;;7.76;73.68;100795.97;5039460;28;45608;-74
2022/03/05 01:14:24;;;;;;;;;1.00;0.50;;;;;7.79;73.43;100792.59;5039423;28;45504;-73
2022/03/05 01:16:50;;;;;;;;;1.00;1.00;;;;;7.79;73.65;100787.41;5039554;28;45310;-73
2022/03/05 01:19:15;;;;;;;;;0.00;0.00;;;;;7.86;73.26;100805.03;5039773;28;45524;-74
2022/03/05 01:21:41;;;;;;;;;0.75;0.75;;;;;7.99;73.04;100825.59;5039285;28;45510;-74
2022/03/05 01:24:07;;;;;;;;;1.00;0.50;;;;;7.88;72.44;100800.84;5039376;28;45303;-74
2022/03/05 01:26:32;;;;;;;;;0.75;0.75;;;;;7.92;73.01;100815.75;5039509;28;45414;-74
2022/03/05 01:28:58;;;;;;;;;0.00;0.00;;;;;8.03;73.34;100824.03;5039388;28;45410;-73
2022/03/05 01:31:24;;;;;;;;;2.00;1.00;;;;;8.10;73.32;100833.91;5039048;28;45532;-74
2022/03/05 01:33:49;;;;;;;;;0.25;0.25;;;;;8.06;74.24;100825.06;5038999;28;45478;-74
2022/03/05 01:36:15;;;;;;;;;1.00;0.00;;;;;8.14;74.02;100825.41;5039127;28;45349;-74
2022/03/05 01:38:41;;;;;;;;;1.00;1.00;;;;;8.07;73.66;100815.53;5039310;28;45457;-74
2022/03/05 01:41:06;;;;;;;;;1.00;0.00;;;;;8.12;73.90;100834.84;5039059;28;45331;-73
2022/03/05 01:43:32;;;;;;;;;0.50;0.50;;;;;8.11;74.01;100823.53;5039113;28;45521;-73
2022/03/05 01:45:57;;;;;;;;;1.00;1.00;;;;;8.02;73.58;100801.41;5038989;28;45239;-73
2022/03/05 01:48:23;;;;;;;;;2.25;0.75;;;;;8.03;73.71;100808.41;5039097;28;45485;-73
2022/03/05 01:50:49;;;;;;;;;0.00;0.00;;;;;7.97;73.37;100794.31;5038728;28;45286;-73
2022/03/05 01:53:14;;;;;;;;;0.50;0.00;;;;;8.09;72.32;100824.28;5038960;28;45303;-73
2022/03/05 01:55:42;;;;;;;;;2.25;1.25;;;;;8.06;73.47;100822.47;5038888;28;45527;-73
2022/03/05 01:58:08;;;;;;;;;1.00;0.00;;;;;7.87;73.68;100786.91;5039288;28;45197;-73
2022/03/05 02:00:34;;;;;;;;;1.00;1.00;;;;;8.06;73.43;100816.38;5038778;28;45963;-73
2022/03/05 02:02:59;;;;;;;;;2.25;2.25;;;;;8.04;73.48;100799.78;5038528;28;45272;-73
2022/03/05 02:05:25;;;;;;;;;1.00;1.00;;;;;7.91;72.37;100767.13;5038550;28;45327;-73
2022/03/05 02:07:51;;;;;;;;;1.50;1.00;;;;;8.14;72.68;100807.19;5038753;28;45359;-73
2022/03/05 02:10:17;;;;;;;;;1.25;1.00;;;;;8.09;72.99;100795.69;5037952;28;46616;-73
2022/03/05 02:12:42;;;;;;;;;2.00;1.50;;;;;8.09;73.55;100793.06;5038471;28;45378;-75
2022/03/05 02:15:09;;;;;;;;;1.00;0.00;;;;;8.06;74.03;100777.34;5038741;28;45387;-75
2022/03/05 02:17:36;;;;;;;;;1.25;0.25;;;;;8.07;73.91;100776.50;5039096;28;45358;-75
2022/03/05 02:20:04;;;;;;;;;1.00;1.00;;;;;8.17;73.74;100792.56;5038140;28;45454;-74
2022/03/05 02:22:29;;;;;;;;;1.00;0.00;;;;;8.09;74.01;100777.47;5038129;28;45450;-75
2022/03/05 02:24:58;;;;;;;;;0.25;0.00;;;;;8.13;73.78;100777.66;5038131;28;45548;-75
2022/03/05 02:27:25;;;;;;;;;0.00;0.00;;;;;8.12;73.47;100791.50;5038407;28;45347;-74
2022/03/05 02:29:51;;;;;;;;;1.00;1.00;;;;;8.02;73.65;100775.41;5038071;28;46088;-73
2022/03/05 02:32:17;;;;;;;;;1.00;0.50;;;;;7.87;73.72;100744.41;5038144;28;45475;-73
2022/03/05 02:34:43;;;;;;;;;1.00;0.00;;;;;7.41;73.86;100679.97;5038128;28;45174;-73
2022/03/05 02:37:10;;;;;;;;;1.00;1.00;;;;;8.10;74.15;100794.88;5038615;28;45626;-73
2022/03/05 02:39:36;;;;;;;;;1.00;1.00;;;;;8.07;73.94;100792.13;5038005;28;46236;-73
2022/03/05 02:42:02;;;;;;;;;0.00;0.00;;;;;8.02;74.32;100791.94;5037743;28;45500;-73
2022/03/05 02:44:28;;;;;;;;;1.00;0.00;;;;;7.93;73.90;100755.09;5037962;28;45351;-73
2022/03/05 02:46:53;;;;;;;;;0.75;0.00;;;;;8.01;74.02;100769.31;5038069;28;45409;-75
2022/03/05 02:49:19;;;;;;;;;0.75;0.00;;;;;8.06;73.96;100773.03;5037923;28;45585;-74
2022/03/05 02:51:45;;;;;;;;;1.00;0.00;;;;;8.01;73.93;100758.91;5037647;28;45462;-75
2022/03/05 02:54:10;;;;;;;;;0.50;0.00;;;;;8.04;74.00;100765.94;5038085;28;45484;-73
2022/03/05 02:56:36;;;;;;;;;1.00;0.00;;;;;8.03;73.56;100769.38;5038168;28;45549;-73
2022/03/05 02:59:02;;;;;;;;;1.00;0.00;;;;;8.04;73.79;100768.56;5037841;28;46250;-74
2022/03/05 03:01:27;;;;;;;;;0.00;0.00;;;;;8.05;73.74;100772.94;5037624;28;45520;-75
2022/03/05 03:03:53;;;;;;;;;0.00;0.00;;;;;7.95;73.23;100754.31;5037613;28;45450;-75
2022/03/05 03:06:18;;;;;;;;;0.50;0.00;;;;;7.75;72.87;100723.97;5037853;28;45225;-75
2022/03/05 03:08:44;;;;;;;;;0.00;0.00;;;;;8.01;73.42;100768.44;5037370;28;46089;-75
2022/03/05 03:11:10;;;;;;;;;0.50;0.00;;;;;7.96;73.68;100755.22;5037930;28;45227;-75
2022/03/05 03:13:37;;;;;;;;;0.00;0.00;;;;;7.95;73.68;100756.94;5037662;28;45442;-73
2022/03/05 03:16:03;;;;;;;;;0.25;0.00;;;;;7.89;73.58;100740.16;5037947;28;45952;-73
2022/03/05 03:18:28;;;;;;;;;1.00;0.00;;;;;7.96;73.47;100755.22;5037312;28;45279;-73
2022/03/05 03:20:54;;;;;;;;;0.00;0.00;;;;;7.75;73.67;100722.25;5037063;28;45427;-73
2022/03/05 03:23:19;;;;;;;;;0.75;0.00;;;;;7.90;73.06;100741.97;5036793;28;45402;-74
2022/03/05 03:25:45;;;;;;;;;1.25;0.00;;;;;7.92;73.05;100742.91;5037525;28;45504;-73
2022/03/05 03:28:11;;;;;;;;;0.00;0.00;;;;;8.02;72.69;100757.19;5037525;28;46242;-74
2022/03/05 03:30:36;;;;;;;;;0.50;0.00;;;;;8.01;72.59;100748.50;5037341;28;45312;-73
2022/03/05 03:33:02;;;;;;;;;0.00;0.00;;;;;7.87;72.65;100721.00;5037432;28;45314;-73
2022/03/05 03:35:28;;;;;;;;;1.75;0.00;;;;;7.92;72.41;100723.00;5037568;28;45293;-73
2022/03/05 03:37:54;;;;;;;;;0.00;0.00;;;;;7.92;72.48;100725.59;5036971;28;46285;-73
2022/03/05 03:40:19;;;;;;;;;1.00;0.00;;;;;7.96;71.79;100726.63;5037166;28;45419;-73
2022/03/05 03:42:48;;;;;;;;;1.75;0.00;;;;;8.03;72.88;100741.66;5037188;28;45228;-73
2022/03/05 03:45:15;;;;;;;;;0.00;0.00;;;;;8.01;72.42;100743.28;5037658;28;45292;-73
2022/03/05 03:47:43;;;;;;;;;0.50;0.00;;;;;8.01;72.83;100739.81;5035718;28;46667;-73
2022/03/05 03:50:11;;;;;;;;;0.00;0.00;;;;;7.95;72.78;100730.03;5037085;28;45448;-73
2022/03/05 03:52:37;;;;;;;;;1.00;0.00;;;;;7.91;73.10;100720.31;5037122;28;45503;-73
2022/03/05 03:55:04;;;;;;;;;0.75;0.00;;;;;7.96;73.85;100734.44;5037177;28;45545;-73
2022/03/05 03:57:30;;;;;;;;;0.75;0.00;;;;;7.88;74.50;100722.81;5037202;28;46410;-73
2022/03/05 03:59:55;;;;;;;;;1.00;1.00;;;;;7.74;74.42;100699.66;5036782;28;45490;-75
2022/03/05 04:02:22;;;;;;;;;0.00;0.00;;;;;8.02;74.53;100742.50;5036846;28;45479;-75
2022/03/05 04:04:49;;;;;;;;;1.25;0.00;;;;;8.04;73.59;100737.34;5037019;28;45540;-74
2022/03/05 04:09:58;;;;;;;;;0.00;0.00;;;;;7.96;73.97;100709.28;5036783;28;45167;-75
2022/03/05 04:12:24;;;;;;;;;0.00;0.00;;;;;8.03;73.52;100725.16;5036898;28;45335;-75
2022/03/05 04:14:50;;;;;;;;;1.00;0.00;;;;;8.02;74.18;100728.56;5037110;28;45228;-73
2022/03/05 04:17:16;;;;;;;;;1.00;1.00;;;;;7.98;73.70;100727.56;5036936;28;45981;-73
2022/03/05 04:19:42;;;;;;;;;0.25;0.25;;;;;7.92;73.81;100733.41;5036773;28;45339;-73
2022/03/05 04:22:08;;;;;;;;;0.00;0.00;;;;;7.83;74.07;100716.50;5036942;28;45466;-73
2022/03/05 04:24:33;;;;;;;;;0.00;0.00;;;;;7.90;73.96;100728.97;5036924;28;45227;-73
2022/03/05 04:26:59;;;;;;;;;1.00;0.00;;;;;7.86;73.28;100711.41;5036193;28;45352;-73
2022/03/05 04:29:25;;;;;;;;;0.00;0.00;;;;;7.98;73.54;100730.19;5036487;28;45488;-73
2022/03/05 04:31:50;;;;;;;;;1.00;0.00;;;;;7.39;73.53;100620.13;5036789;28;45383;-73
2022/03/05 04:34:16;;;;;;;;;1.00;0.00;;;;;7.93;73.79;100708.25;5039860;28;45596;-73
2022/03/05 04:36:42;;;;;;;;;1.00;0.00;;;;;7.91;73.48;100702.09;5038862;28;47534;-73
2022/03/05 04:39:07;;;;;;;;;0.00;0.00;;;;;8.02;73.63;100713.88;5039945;28;45529;-73
2022/03/05 04:41:34;;;;;;;;;0.00;0.00;;;;;8.05;73.52;100713.09;5039933;28;45407;-73
2022/03/05 04:43:59;;;;;;;;;0.00;0.00;;;;;8.06;72.95;100718.38;5040201;28;45442;-74
2022/03/05 04:46:25;;;;;;;;;2.00;0.00;;;;;8.02;73.32;100712.97;5039438;28;46480;-73
2022/03/05 04:48:50;;;;;;;;;1.00;0.00;;;;;8.06;73.21;100723.59;5039578;28;45565;-73
2022/03/05 04:51:16;;;;;;;;;0.00;0.00;;;;;8.06;73.55;100726.19;5038730;28;45530;-73
2022/03/05 04:53:42;;;;;;;;;0.00;0.00;;;;;7.95;73.30;100704.91;5039781;28;45498;-73
2022/03/05 04:56:07;;;;;;;;;0.00;0.00;;;;;8.00;74.00;100720.72;5039404;28;46138;-73
2022/03/05 04:58:33;;;;;;;;;0.00;0.00;;;;;7.94;74.21;100710.06;5039661;28;45382;-73
2022/03/05 05:00:58;;;;;;;;;0.75;0.00;;;;;8.01;74.07;100725.09;5039697;28;45373;-73
2022/03/05 05:03:24;;;;;;;;;1.00;1.00;;;;;7.89;74.01;100702.03;5039737;28;45331;-73
2022/03/05 05:05:49;;;;;;;;;0.25;0.00;;;;;7.94;73.94;100705.75;5039480;28;46166;-73
2022/03/05 05:08:16;;;;;;;;;0.00;0.00;;;;;7.90;73.73;100701.22;5039585;28;45538;-73
2022/03/05 05:10:41;;;;;;;;;0.00;0.00;;;;;7.99;73.64;100724.13;5039456;28;45505;-73
2022/03/05 05:13:07;;;;;;;;;0.25;0.00;;;;;7.36;74.13;100618.28;5039484;28;45489;-73
2022/03/05 05:15:32;;;;;;;;;0.00;0.00;;;;;7.82;74.26;100709.50;5039141;28;45370;-73
2022/03/05 05:18:00;;;;;;;;;0.00;0.00;;;;;7.69;74.25;100698.56;5039213;28;45453;-73
2022/03/05 05:20:25;;;;;;;;;0.00;0.00;;;;;7.79;74.06;100727.59;5039483;28;45331;-73
2022/03/05 05:22:51;;;;;;;;;0.00;0.00;;;;;7.55;74.41;100690.16;5038220;28;45319;-73
2022/03/05 05:25:17;;;;;;;;;0.00;0.00;;;;;7.67;74.86;100725.34;5039567;28;46567;-73
2022/03/05 05:27:43;;;;;;;;;0.00;0.00;;;;;7.45;75.33;100690.56;5038775;28;45477;-73
2022/03/05 05:30:09;;;;;;;;;0.00;0.00;;;;;7.49;75.61;100721.09;5037862;28;45597;-73
2022/03/05 05:32:35;;;;;;;;;0.00;0.00;;;;;7.37;76.29;100725.72;5039130;28;45509;-73
2022/03/05 05:35:01;;;;;;;;;0.25;0.00;;;;;7.09;76.41;100697.59;5038938;28;46160;-73
2022/03/05 05:37:27;;;;;;;;;0.00;0.00;;;;;6.97;76.63;100696.19;5038988;28;45396;-73
2022/03/05 05:39:52;;;;;;;;;0.00;0.00;;;;;7.01;77.05;100719.72;5039287;28;45181;-73
2022/03/05 05:42:18;;;;;;;;;0.00;0.00;;;;;6.31;77.33;100604.81;5039608;28;45239;-73
2022/03/05 05:44:43;;;;;;;;;1.00;0.00;;;;;6.35;77.35;100617.13;5038246;28;45540;-73
2022/03/05 05:47:09;;;;;;;;;0.00;0.00;;;;;7.07;77.64;100720.91;5038759;28;45232;-73
2022/03/05 05:49:36;;;;;;;;;0.00;0.00;;;;;7.15;77.33;100723.84;5039104;28;45233;-73
2022/03/05 05:52:02;;;;;;;;;1.00;1.00;;;;;7.09;77.02;100708.00;5039276;28;45528;-73
2022/03/05 05:54:28;;;;;;;;;0.75;0.00;;;;;6.92;77.18;100696.78;5038610;28;45983;-73
2022/03/05 05:56:54;;;;;;;;;0.00;0.00;;;;;7.07;77.66;100728.69;5038593;28;45407;-73
2022/03/05 05:59:20;;;;;;;;;1.75;1.00;;;;;6.79;77.30;100686.66;5039260;28;46143;-73
2022/03/05 06:01:46;;;;;;;;;0.00;0.00;;;;;7.04;77.33;100728.53;5038751;28;45504;-73
2022/03/05 06:04:11;;;;;;;;;0.00;0.00;;;;;6.99;76.64;100711.84;5038591;28;46302;-73
2022/03/05 06:06:37;;;;;;;;;0.00;0.00;;;;;6.96;76.46;100704.81;5038562;28;45209;-73
2022/03/05 06:09:03;;;;;;;;;0.00;0.00;;;;;7.02;76.39;100708.50;5038664;28;45346;-73
2022/03/05 06:11:30;;;;;;;;;0.00;0.00;;;;;7.16;76.13;100717.81;5037425;28;45626;-73
2022/03/05 06:13:56;;;;;;;;;0.00;0.00;;;;;7.21;75.72;100718.06;5037129;28;46976;-73
2022/03/05 06:16:22;;;;;;;;;1.00;0.00;;;;;7.22;74.85;100715.53;5038462;28;45492;-75
2022/03/05 06:18:47;;;;;;;;;0.00;0.00;;;;;7.27;74.87;100721.81;5038383;28;45335;-75
2022/03/05 06:21:13;;;;;;;;;0.00;0.00;;;;;7.26;75.52;100727.84;5038835;28;45481;-75
2022/03/05 06:23:39;;;;;;;;;0.75;0.00;;;;;7.26;75.84;100721.75;5038321;28;45617;-74
2022/03/05 06:26:05;;;;;;;;;0.00;0.00;;;;;7.30;75.61;100723.66;5038126;28;45322;-75
2022/03/05 06:28:31;;;;;;;;;2.50;2.00;;;;;7.17;75.76;100699.72;5038507;28;45429;-75
2022/03/05 06:30:57;;;;;;;;;2.00;2.00;;;;;7.20;75.74;100704.16;5038519;28;45355;-73
2022/03/05 06:33:23;;;;;;;;;0.75;0.75;;;;;7.25;75.88;100710.47;5038439;28;45513;-73
2022/03/05 06:35:48;;;;;;;;;0.00;0.00;;;;;7.24;74.92;100713.91;5038338;28;45569;-73
2022/03/05 06:38:14;;;;;;;;;0.00;0.00;;;;;7.36;75.44;100732.66;5038383;28;45418;-73
2022/03/05 06:40:40;;;;;;;;;2.50;0.00;;;;;7.28;74.43;100723.63;5038566;28;45178;-73
2022/03/05 06:43:05;;;;;;;;;3.00;2.50;;;;;7.32;74.48;100737.59;5038132;28;46387;-73
2022/03/05 06:45:31;;;;;;;;;63.25;51.00;;;;;6.80;75.09;100650.34;5038039;28;45505;-75
2022/03/05 06:47:57;;;;;;;;;16.50;15.50;;;;;7.30;75.77;100729.78;5037988;28;45466;-75
2022/03/05 06:50:23;;;;;;;;;1.00;1.00;;;;;7.33;75.31;100737.69;5038330;28;45467;-74
2022/03/05 06:52:48;;;;;;;;;42.75;36.75;;;;;6.80;74.93;100627.00;5037574;28;46554;-75
2022/03/05 06:55:15;;;;;;;;;21.25;19.25;;;;;7.40;75.47;100728.47;5037622;28;45318;-75
2022/03/05 06:57:42;;;;;;;;;8.25;8.00;;;;;7.43;75.50;100726.00;5036535;28;45311;-75
2022/03/05 07:00:09;;;;;;;;;9.75;9.00;;;;;7.48;75.19;100723.59;5036366;28;45553;-74
2022/03/05 07:02:34;;;;;;;;;7.50;6.00;;;;;7.46;75.06;100720.03;5037480;28;45353;-73
2022/03/05 07:05:00;;;;;;;;;8.00;7.50;;;;;7.49;75.28;100718.47;5037610;28;45356;-73
2022/03/05 07:07:25;;;;;;;;;6.50;6.50;;;;;7.46;74.87;100702.75;5037907;28;45426;-73
2022/03/05 07:09:51;;;;;;;;;5.00;3.50;;;;;7.56;74.95;100717.94;5036625;28;45593;-73
2022/03/05 07:12:16;;;;;;;;;31.25;23.00;;;;;7.65;74.93;100729.56;5036019;28;45410;-73
2022/03/05 07:14:44;;;;;;;;;34.25;30.25;;;;;7.61;74.64;100718.16;5037328;28;45327;-73
2022/03/05 07:17:10;;;;;;;;;9.25;8.00;;;;;7.57;74.69;100704.13;5037309;28;45459;-73
2022/03/05 07:19:36;;;;;;;;;5.00;3.50;;;;;7.73;74.82;100723.00;5037473;28;45248;-73
2022/03/05 07:22:01;;;;;;;;;2.00;2.00;;;;;7.74;74.31;100732.59;5037240;28;45561;-73
2022/03/05 07:24:27;;;;;;;;;1.00;1.00;;;;;7.66;74.75;100706.25;5037433;28;45519;-73
2022/03/05 07:26:52;;;;;;;;;1.00;1.00;;;;;7.81;74.76;100728.53;5036327;28;45508;-73
2022/03/05 07:29:18;;;;;;;;;1.00;1.00;;;;;7.80;74.44;100716.34;5035972;28;45595;-73
2022/03/05 07:31:43;;;;;;;;;0.00;0.00;;;;;7.97;74.05;100725.78;5037273;28;45381;-73
2022/03/05 07:34:09;;;;;;;;;1.00;0.75;;;;;8.06;74.09;100728.78;5037145;28;45520;-73
2022/03/05 07:36:34;;;;;;;;;3.00;2.75;;;;;8.21;73.20;100730.25;5037319;28;45457;-73
2022/03/05 07:39:00;;;;;;;;;8.25;8.25;;;;;8.32;73.45;100729.00;5037481;28;45476;-73
2022/03/05 07:41:26;;;;;;;;;9.00;9.00;;;;;8.27;72.27;100694.97;5037380;28;45443;-73
2022/03/05 07:43:51;;;;;;;;;4.00;4.00;;;;;8.61;72.21;100735.44;5035675;28;45482;-73
2022/03/05 07:46:17;;;;;;;;;3.50;3.50;;;;;8.57;72.15;100720.50;5037199;28;45330;-73
2022/03/05 07:48:42;;;;;;;;;3.00;3.00;;;;;8.72;71.40;100726.34;5035820;28;45612;-73
2022/03/05 07:51:08;;;;;;;;;2.00;2.00;;;;;8.29;71.02;100643.84;5036866;28;45588;-73
2022/03/05 07:53:34;;;;;;;;;11.75;11.75;;;;;8.87;71.97;100731.31;5035531;28;45447;-73
2022/03/05 07:56:00;;;;;;;;;5.00;5.00;;;;;8.78;72.22;100710.09;5036925;28;45491;-73
2022/03/05 07:58:25;;;;;;;;;5.00;5.00;;;;;9.02;71.91;100737.94;5037236;28;45316;-73
2022/03/05 08:00:51;;;;;;;;;8.50;8.25;;;;;8.99;71.62;100723.03;5036655;28;45417;-73
2022/03/05 08:03:17;;;;;;;;;3.00;3.00;;;;;9.16;71.51;100753.28;5036710;28;45482;-73
2022/03/05 08:05:43;;;;;;;;;2.00;1.50;;;;;9.05;70.33;100738.97;5036848;28;45409;-74
2022/03/05 08:08:09;;;;;;;;;3.00;3.00;;;;;8.89;71.09;100721.84;5038161;28;45301;-73
2022/03/05 08:10:35;;;;;;;;;4.00;4.00;;;;;9.00;71.44;100732.66;5040089;28;46268;-73
2022/03/05 08:13:01;;;;;;;;;6.00;5.25;;;;;9.14;70.96;100747.09;5040084;28;45497;-73
2022/03/05 08:15:26;;;;;;;;;5.00;4.50;;;;;9.24;70.79;100744.88;5040637;28;45475;-73
2022/03/05 08:17:55;;;;;;;;;4.00;4.00;;;;;9.27;70.70;100750.19;5040497;28;45451;-73
2022/03/05 08:20:22;;;;;;;;;3.00;2.75;;;;;9.28;70.47;100757.19;5040029;28;45606;-73
2022/03/05 08:22:48;;;;;;;;;5.75;5.50;;;;;9.22;70.52;100752.63;5038716;28;45327;-73
2022/03/05 08:25:13;;;;;;;;;4.75;4.75;;;;;9.25;70.92;100754.44;5040013;28;45232;-73
2022/03/05 08:27:39;;;;;;;;;3.00;2.00;;;;;9.29;70.33;100758.94;5040042;28;45480;-73
2022/03/05 08:30:05;;;;;;;;;3.00;2.50;;;;;9.33;69.98;100756.53;5040237;28;46164;-73
2022/03/05 08:32:31;;;;;;;;;3.25;3.00;;;;;9.18;70.43;100727.28;5039885;28;45477;-73
2022/03/05 08:34:57;;;;;;;;;3.25;3.00;;;;;9.35;70.18;100747.06;5040177;28;45386;-73
2022/03/05 08:37:23;;;;;;;;;3.00;3.00;;;;;9.45;70.10;100747.38;5040233;28;45422;-73
2022/03/05 08:39:48;;;;;;;;;3.00;3.00;;;;;9.58;69.49;100762.69;5039403;28;45514;-73
2022/03/05 08:42:14;;;;;;;;;3.00;3.00;;;;;9.53;69.67;100741.66;5038357;28;45316;-74
2022/03/05 08:44:40;;;;;;;;;8.00;8.00;;;;;9.46;70.13;100738.75;5039942;28;45430;-73
2022/03/05 08:47:06;;;;;;;;;10.50;9.00;;;;;9.47;70.18;100751.84;5038624;28;45519;-73
2022/03/05 08:49:31;;;;;;;;;9.00;9.00;;;;;9.58;70.19;100767.88;5038561;28;45416;-73
2022/03/05 08:51:57;;;;;;;;;18.25;16.25;;;;;9.52;69.46;100755.50;5038541;28;45502;-73
2022/03/05 08:54:25;;;;;;;;;10.25;9.00;;;;;9.46;69.47;100759.59;5038035;28;45537;-73
2022/03/05 08:56:51;;;;;;;;;11.50;10.75;;;;;9.43;69.97;100770.81;5037998;28;45684;-73
2022/03/05 08:59:16;;;;;;;;;3.50;3.00;;;;;9.41;69.08;100766.34;5038994;28;46097;-73
2022/03/05 09:01:42;;;;;;;;;10.25;9.00;;;;;9.42;69.86;100775.97;5038858;28;45520;-73
2022/03/05 09:04:07;;;;;;;;;19.25;17.00;;;;;9.32;69.96;100759.97;5038068;28;45521;-73
2022/03/05 09:06:33;;;;;;;;;10.00;9.50;;;;;9.51;69.83;100769.38;5037988;28;45523;-73
2022/03/05 09:09:00;;;;;;;;;12.25;10.75;;;;;9.61;70.09;100770.63;5037964;28;45607;-73
2022/03/05 09:11:26;;;;;;;;;8.25;8.00;;;;;9.77;68.86;100772.09;5038794;28;45440;-73
2022/03/05 09:13:52;;;;;;;;;1.75;1.75;;;;;9.90;68.17;100773.41;5039275;28;45504;-72
2022/03/05 09:16:18;;;;;;;;;8.25;8.25;;;;;9.93;68.16;100770.91;5039218;28;45436;-73
2022/03/05 09:18:44;;;;;;;;;6.00;5.25;;;;;9.94;67.37;100757.03;5039026;28;46038;-72
2022/03/05 09:21:09;;;;;;;;;5.00;4.25;;;;;10.08;67.32;100757.50;5038236;28;45481;-73
2022/03/05 09:23:35;;;;;;;;;2.25;2.25;;;;;10.30;67.80;100762.69;5039104;28;45491;-73
2022/03/05 09:26:00;;;;;;;;;2.00;1.75;;;;;10.53;66.17;100736.47;5039479;28;45181;-72
2022/03/05 09:28:26;;;;;;;;;4.75;4.00;;;;;10.85;65.60;100747.09;5039035;28;45261;-72
2022/03/05 09:30:51;;;;;;;;;5.75;5.50;;;;;11.11;64.41;100748.78;5039160;28;45319;-73
2022/03/05 09:33:17;;;;;;;;;6.75;6.00;;;;;11.21;63.61;100734.25;5037552;28;45314;-73
2022/03/05 09:35:44;;;;;;;;;3.25;3.25;;;;;11.32;62.26;100737.19;5038976;28;45332;-73
2022/03/05 09:38:10;;;;;;;;;4.33;3.67;;;;;11.47;62.85;100742.00;5038592;28;46410;-73
2022/03/05 09:40:35;;;;;;;;;4.75;4.00;;;;;11.65;61.92;100742.53;5038265;28;45458;-72
2022/03/05 09:43:02;;;;;;;;;2.00;2.00;;;;;11.84;60.04;100740.44;5038793;28;45540;-73
2022/03/05 09:45:28;;;;;;;;;7.00;6.00;;;;;12.07;60.90;100746.34;5039123;28;45284;-72
2022/03/05 09:47:55;;;;;;;;;4.75;4.75;;;;;12.17;59.98;100709.06;5038207;28;45299;-73
2022/03/05 09:50:22;;;;;;;;;11.50;10.00;;;;;12.51;59.06;100723.94;5037202;28;45235;-73
2022/03/05 09:52:48;;;;;;;;;6.00;4.33;;;;;12.80;58.83;100725.47;5038697;28;45299;-73
2022/03/05 09:55:13;;;;;;;;;6.50;6.00;;;;;13.01;58.93;100730.31;5038805;28;45303;-73
2022/03/05 09:57:39;;;;;;;;;9.25;8.25;;;;;13.18;58.54;100725.47;5038267;28;46115;-73
2022/03/05 10:00:06;;;;;;;;;4.33;4.00;;;;;13.30;59.50;100704.78;5037499;28;45337;-73
2022/03/05 10:02:32;;;;;;;;;8.00;6.67;;;;;13.72;58.28;100731.00;5038856;28;45233;-73
2022/03/05 10:05:27;;;;;;;;;1.00;1.00;;;;;14.04;58.30;100730.75;5038524;28;45355;-73
2022/03/05 10:08:11;;;;;;;;;1.00;1.00;;;;;14.42;56.74;100719.16;5033135;28;45707;-73
2022/03/05 10:10:52;;;;;;;;;3.33;3.33;;;;;14.91;55.21;100725.25;5038090;28;45477;-73
2022/03/05 10:13:31;;;;;;;;;3.00;2.33;;;;;15.05;54.00;100718.44;5038268;28;45490;-73
2022/03/05 10:16:01;;;;;;;;;1.33;1.00;;;;;15.13;54.43;100717.69;5038524;28;45681;-73
2022/03/05 10:18:35;;;;;;;;;1.00;1.00;;;;;15.22;51.67;100713.44;5038160;28;45351;-73
2022/03/05 10:21:03;;;;;;;;;4.00;2.67;;;;;15.41;52.82;100697.88;5038200;28;45240;-73
2022/03/05 10:23:38;;;;;;;;;3.00;2.33;;;;;15.71;50.80;100700.84;5038209;28;45311;-73
2022/03/05 10:26:08;;;;;;;;;2.00;2.00;;;;;16.03;48.95;100702.13;5038509;28;45358;-73
2022/03/05 10:28:35;;;;;;;;;2.00;2.00;;;;;16.28;48.82;100708.50;5037974;28;45485;-73
2022/03/05 10:31:07;;;;;;;;;2.00;1.00;;;;;16.52;49.89;100706.97;5037782;28;45236;-73
2022/03/05 10:33:42;;;;;;;;;2.00;1.67;;;;;16.95;49.26;100699.38;5038165;28;45182;-73
2022/03/05 10:36:10;;;;;;;;;2.67;2.33;;;;;17.55;48.94;100697.03;5037999;28;45197;-73
2022/03/05 10:38:47;;;;;;;;;1.00;0.67;;;;;18.26;46.50;100690.19;5037795;28;45752;-73
2022/03/05 10:41:17;;;;;;;;;4.00;0.67;;;;;18.00;45.73;100684.88;5037745;28;45338;-74
2022/03/05 10:43:44;;;;;;;;;0.67;0.67;;;;;17.73;46.78;100689.19;5037809;28;45580;-74
2022/03/05 10:46:09;;;;;;;;;0.33;0.33;;;;;17.65;46.33;100662.75;5038135;28;45279;-74
2022/03/05 10:48:40;;;;;;;;;0.67;0.67;;;;;17.81;44.87;100678.66;5037612;28;45655;-73
2022/03/05 10:51:12;;;;;;;;;0.67;0.67;;;;;18.06;45.76;100685.78;5037886;28;45350;-73
2022/03/05 10:53:47;;;;;;;;;3.00;2.67;;;;;18.33;44.69;100662.00;5036704;28;45421;-73
2022/03/05 10:56:28;;;;;;;;;2.00;1.00;;;;;19.38;43.46;100678.59;5037575;28;45461;-73
2022/03/05 10:58:59;;;;;;;;;1.33;1.33;;;;;20.23;40.68;100660.41;5036781;28;46179;-74
2022/03/05 11:01:25;;;;;;;;;1.00;1.00;;;;;21.33;39.84;100681.47;5037428;28;45291;-73
2022/03/05 11:03:52;;;;;;;;;1.00;1.00;;;;;20.75;38.95;100686.56;5037426;28;45610;-73
2022/03/05 11:06:20;;;;;;;;;1.00;1.00;;;;;20.39;40.10;100670.03;5037723;28;45498;-74
2022/03/05 11:08:46;;;;;;;;;1.00;1.00;;;;;19.67;40.47;100673.13;5037154;28;46465;-74
2022/03/05 11:11:18;;;;;;;;;1.00;1.00;;;;;19.44;41.15;100675.91;5037376;28;45399;-73
2022/03/05 11:13:44;;;;;;;;;2.33;2.00;;;;;19.51;40.10;100664.38;5037395;28;45292;-73
2022/03/05 11:16:11;;;;;;;;;1.33;1.00;;;;;19.70;40.63;100680.22;5037897;28;45471;-73
2022/03/05 11:18:37;;;;;;;;;2.67;1.00;;;;;19.56;41.25;100681.16;5037254;28;45744;-73
2022/03/05 11:21:04;;;;;;;;;5.00;4.00;;;;;19.55;41.10;100683.78;5037141;28;45349;-73
2022/03/05 11:23:31;;;;;;;;;2.00;1.67;;;;;19.41;41.33;100673.25;5037108;28;45422;-73
2022/03/05 11:25:58;;;;;;;;;3.33;3.00;;;;;19.19;41.42;100675.97;5037319;28;45442;-73
2022/03/05 11:28:23;;;;;;;;;5.00;3.67;;;;;18.98;40.77;100678.69;5035413;28;48072;-73
2022/03/05 11:30:55;;;;;;;;;14.00;12.33;;;;;18.95;40.59;100684.00;5036841;28;45369;-73